sensor_id;sensor_type;location;lat;lon;timestamp;P1;durP1;ratioP1;P2;durP2;ratioP2
21804;SDS011;11064;47.102;15.452;2023-09-19T04:03:48;5.00;;;1.60;;
21804;SDS011;11064;47.102;15.452;2023-09-19T04:06:16;4.93;;;1.77;;
21804;SDS011;11064;47.102;15.452;2023-09-19T04:08:43;4.90;;;2.03;;
21804;SDS011;11064;47.102;15.452;2023-09-19T04:11:09;5.25;;;2.05;;
21804;SDS011;11064;47.102;15.452;2023-09-19T04:13:35;3.28;;;2.00;;
21804;SDS011;11064;47.102;15.452;2023-09-19T04:16:02;5.78;;;2.10;;
21804;SDS011;11064;47.102;15.452;2023-09-19T04:18:32;2.97;;;1.90;;
21804;SDS011;11064;47.102;15.452;2023-09-19T04:20:58;5.78;;;2.10;;
21804;SDS011;11064;47.102;15.452;2023-09-19T04:23:27;5.90;;;2.50;;
21804;SDS011;11064;47.102;15.452;2023-09-19T04:25:53;6.07;;;3.03;;
21804;SDS011;11064;47.102;15.452;2023-09-19T04:28:19;6.63;;;2.80;;
21804;SDS011;11064;47.102;15.452;2023-09-19T04:30:45;5.20;;;2.75;;
21804;SDS011;11064;47.102;15.452;2023-09-19T04:33:10;4.90;;;2.33;;
21804;SDS011;11064;47.102;15.452;2023-09-19T04:35:39;4.40;;;2.33;;
21804;SDS011;11064;47.102;15.452;2023-09-19T04:38:07;10.35;;;2.95;;
21804;SDS011;11064;47.102;15.452;2023-09-19T04:40:34;5.93;;;2.83;;
21804;SDS011;11064;47.102;15.452;2023-09-19T04:43:00;5.63;;;2.28;;
21804;SDS011;11064;47.102;15.452;2023-09-19T04:45:26;6.55;;;2.70;;
21804;SDS011;11064;47.102;15.452;2023-09-19T04:47:53;4.00;;;2.53;;
21804;SDS011;11064;47.102;15.452;2023-09-19T04:50:19;4.40;;;2.40;;
21804;SDS011;11064;47.102;15.452;2023-09-19T04:52:49;6.72;;;2.30;;
21804;SDS011;11064;47.102;15.452;2023-09-19T04:55:16;7.50;;;3.33;;
21804;SDS011;11064;47.102;15.452;2023-09-19T04:57:45;10.63;;;4.90;;
21804;SDS011;11064;47.102;15.452;2023-09-19T05:00:19;4.70;;;3.03;;
21804;SDS011;11064;47.102;15.452;2023-09-19T05:02:48;3.47;;;2.70;;
21804;SDS011;11064;47.102;15.452;2023-09-19T05:05:18;6.00;;;2.33;;
21804;SDS011;11064;47.102;15.452;2023-09-19T05:07:44;7.15;;;2.33;;
21804;SDS011;11064;47.102;15.452;2023-09-19T05:10:11;5.72;;;2.50;;
21804;SDS011;11064;47.102;15.452;2023-09-19T05:12:38;4.53;;;2.05;;
21804;SDS011;11064;47.102;15.452;2023-09-19T05:15:07;5.00;;;2.05;;
21804;SDS011;11064;47.102;15.452;2023-09-19T05:17:33;3.72;;;1.67;;
21804;SDS011;11064;47.102;15.452;2023-09-19T05:20:03;4.32;;;1.80;;
21804;SDS011;11064;47.102;15.452;2023-09-19T05:22:42;4.30;;;1.80;;
21804;SDS011;11064;47.102;15.452;2023-09-19T05:25:09;7.38;;;2.10;;
21804;SDS011;11064;47.102;15.452;2023-09-19T05:27:36;3.53;;;1.80;;
21804;SDS011;11064;47.102;15.452;2023-09-19T05:30:02;5.03;;;2.13;;
21804;SDS011;11064;47.102;15.452;2023-09-19T05:32:28;3.20;;;1.80;;
21804;SDS011;11064;47.102;15.452;2023-09-19T05:34:54;3.38;;;1.95;;
21804;SDS011;11064;47.102;15.452;2023-09-19T05:37:21;5.75;;;1.98;;
21804;SDS011;11064;47.102;15.452;2023-09-19T05:39:48;3.55;;;1.80;;
21804;SDS011;11064;47.102;15.452;2023-09-19T05:42:14;1.88;;;1.60;;
21804;SDS011;11064;47.102;15.452;2023-09-19T05:44:40;2.50;;;1.60;;
21804;SDS011;11064;47.102;15.452;2023-09-19T05:47:06;4.47;;;1.67;;
21804;SDS011;11064;47.102;15.452;2023-09-19T05:49:37;4.40;;;1.80;;
21804;SDS011;11064;47.102;15.452;2023-09-19T05:52:04;6.38;;;1.90;;
21804;SDS011;11064;47.102;15.452;2023-09-19T05:54:31;5.43;;;1.75;;
21804;SDS011;11064;47.102;15.452;2023-09-19T05:56:59;2.75;;;1.70;;
21804;SDS011;11064;47.102;15.452;2023-09-19T05:59:27;3.17;;;1.77;;
21804;SDS011;11064;47.102;15.452;2023-09-19T06:01:52;5.35;;;1.92;;
21804;SDS011;11064;47.102;15.452;2023-09-19T06:04:18;3.13;;;1.55;;
21804;SDS011;11064;47.102;15.452;2023-09-19T06:06:45;3.80;;;1.60;;
21804;SDS011;11064;47.102;15.452;2023-09-19T06:09:13;2.35;;;1.70;;
21804;SDS011;11064;47.102;15.452;2023-09-19T06:11:41;3.40;;;1.48;;
21804;SDS011;11064;47.102;15.452;2023-09-19T06:14:07;4.63;;;1.60;;
21804;SDS011;11064;47.102;15.452;2023-09-19T06:16:35;2.90;;;1.65;;
21804;SDS011;11064;47.102;15.452;2023-09-19T06:19:03;2.72;;;1.60;;
21804;SDS011;11064;47.102;15.452;2023-09-19T06:21:31;3.83;;;1.40;;
21804;SDS011;11064;47.102;15.452;2023-09-19T06:23:57;2.80;;;1.48;;
21804;SDS011;11064;47.102;15.452;2023-09-19T06:26:24;2.95;;;1.70;;
21804;SDS011;11064;47.102;15.452;2023-09-19T06:28:52;3.75;;;1.67;;
21804;SDS011;11064;47.102;15.452;2023-09-19T06:31:18;16.23;;;4.63;;
21804;SDS011;11064;47.102;15.452;2023-09-19T06:33:46;3.60;;;1.65;;
21804;SDS011;11064;47.102;15.452;2023-09-19T06:36:12;4.97;;;1.40;;
21804;SDS011;11064;47.102;15.452;2023-09-19T06:38:37;2.80;;;1.52;;
21804;SDS011;11064;47.102;15.452;2023-09-19T06:41:04;3.65;;;1.38;;
21804;SDS011;11064;47.102;15.452;2023-09-19T06:43:32;5.68;;;1.67;;
21804;SDS011;11064;47.102;15.452;2023-09-19T06:45:59;3.85;;;1.50;;
21804;SDS011;11064;47.102;15.452;2023-09-19T06:50:55;5.30;;;1.80;;
21804;SDS011;11064;47.102;15.452;2023-09-19T06:53:23;2.65;;;1.70;;
21804;SDS011;11064;47.102;15.452;2023-09-19T06:55:50;2.10;;;1.55;;
21804;SDS011;11064;47.102;15.452;2023-09-19T06:58:16;4.60;;;1.73;;
21804;SDS011;11064;47.102;15.452;2023-09-19T07:00:42;2.92;;;1.80;;
21804;SDS011;11064;47.102;15.452;2023-09-19T07:03:09;12.75;;;4.25;;
21804;SDS011;11064;47.102;15.452;2023-09-19T07:05:37;5.20;;;1.83;;
21804;SDS011;11064;47.102;15.452;2023-09-19T07:08:04;7.15;;;2.00;;
21804;SDS011;11064;47.102;15.452;2023-09-19T07:10:31;4.50;;;1.90;;
21804;SDS011;11064;47.102;15.452;2023-09-19T07:13:05;4.25;;;1.70;;
21804;SDS011;11064;47.102;15.452;2023-09-19T07:15:34;2.70;;;1.88;;
21804;SDS011;11064;47.102;15.452;2023-09-19T07:18:26;6.07;;;1.95;;
21804;SDS011;11064;47.102;15.452;2023-09-19T07:20:56;2.80;;;2.05;;
21804;SDS011;11064;47.102;15.452;2023-09-19T07:23:26;4.15;;;2.20;;
21804;SDS011;11064;47.102;15.452;2023-09-19T07:25:52;5.38;;;2.20;;
21804;SDS011;11064;47.102;15.452;2023-09-19T07:28:22;8.30;;;2.50;;
21804;SDS011;11064;47.102;15.452;2023-09-19T07:30:47;5.75;;;2.33;;
21804;SDS011;11064;47.102;15.452;2023-09-19T07:33:13;6.50;;;2.30;;
21804;SDS011;11064;47.102;15.452;2023-09-19T07:35:39;5.75;;;2.33;;
21804;SDS011;11064;47.102;15.452;2023-09-19T07:38:06;3.92;;;2.30;;
21804;SDS011;11064;47.102;15.452;2023-09-19T07:40:32;5.53;;;2.10;;
21804;SDS011;11064;47.102;15.452;2023-09-19T07:42:59;4.63;;;2.15;;
21804;SDS011;11064;47.102;15.452;2023-09-19T07:47:58;4.13;;;1.88;;
21804;SDS011;11064;47.102;15.452;2023-09-19T07:50:29;3.30;;;2.20;;
21804;SDS011;11064;47.102;15.452;2023-09-19T07:52:55;3.90;;;1.90;;
21804;SDS011;11064;47.102;15.452;2023-09-19T07:55:21;2.83;;;1.75;;
21804;SDS011;11064;47.102;15.452;2023-09-19T07:57:54;3.90;;;1.75;;
21804;SDS011;11064;47.102;15.452;2023-09-19T08:00:20;2.80;;;1.52;;
21804;SDS011;11064;47.102;15.452;2023-09-19T08:02:45;3.55;;;1.80;;
21804;SDS011;11064;47.102;15.452;2023-09-19T08:05:12;3.33;;;1.60;;
21804;SDS011;11064;47.102;15.452;2023-09-19T08:07:43;6.10;;;1.80;;
21804;SDS011;11064;47.102;15.452;2023-09-19T08:10:21;3.27;;;1.70;;
21804;SDS011;11064;47.102;15.452;2023-09-19T08:12:47;4.53;;;1.80;;
21804;SDS011;11064;47.102;15.452;2023-09-19T08:15:18;2.88;;;1.50;;
21804;SDS011;11064;47.102;15.452;2023-09-19T08:17:45;4.70;;;1.73;;
21804;SDS011;11064;47.102;15.452;2023-09-19T08:20:11;3.03;;;1.65;;
21804;SDS011;11064;47.102;15.452;2023-09-19T08:22:48;5.28;;;1.40;;
21804;SDS011;11064;47.102;15.452;2023-09-19T08:25:17;3.33;;;1.30;;
21804;SDS011;11064;47.102;15.452;2023-09-19T08:27:44;3.67;;;1.40;;
21804;SDS011;11064;47.102;15.452;2023-09-19T08:30:19;3.75;;;1.40;;
21804;SDS011;11064;47.102;15.452;2023-09-19T08:32:49;4.55;;;1.60;;
21804;SDS011;11064;47.102;15.452;2023-09-19T08:35:15;2.90;;;1.80;;
21804;SDS011;11064;47.102;15.452;2023-09-19T08:37:44;2.85;;;1.52;;
21804;SDS011;11064;47.102;15.452;2023-09-19T08:40:13;3.55;;;1.40;;
21804;SDS011;11064;47.102;15.452;2023-09-19T08:42:48;3.47;;;1.80;;
21804;SDS011;11064;47.102;15.452;2023-09-19T08:45:15;3.22;;;1.63;;
21804;SDS011;11064;47.102;15.452;2023-09-19T08:47:53;5.60;;;2.00;;
21804;SDS011;11064;47.102;15.452;2023-09-19T08:50:43;7.80;;;2.40;;
21804;SDS011;11064;47.102;15.452;2023-09-19T08:53:31;24.65;;;4.90;;
21804;SDS011;11064;47.102;15.452;2023-09-19T08:56:08;5.22;;;1.63;;
21804;SDS011;11064;47.102;15.452;2023-09-19T08:58:39;4.97;;;1.60;;
21804;SDS011;11064;47.102;15.452;2023-09-19T09:01:13;3.45;;;1.38;;
21804;SDS011;11064;47.102;15.452;2023-09-19T09:03:40;4.22;;;1.55;;
21804;SDS011;11064;47.102;15.452;2023-09-19T09:06:13;3.25;;;1.85;;
21804;SDS011;11064;47.102;15.452;2023-09-19T09:08:41;2.17;;;1.60;;
21804;SDS011;11064;47.102;15.452;2023-09-19T09:11:08;3.30;;;1.90;;
21804;SDS011;11064;47.102;15.452;2023-09-19T09:13:35;2.92;;;1.98;;
21804;SDS011;11064;47.102;15.452;2023-09-19T09:16:02;4.57;;;2.17;;
21804;SDS011;11064;47.102;15.452;2023-09-19T09:18:28;5.22;;;1.85;;
21804;SDS011;11064;47.102;15.452;2023-09-19T09:20:57;3.88;;;1.80;;
21804;SDS011;11064;47.102;15.452;2023-09-19T09:23:23;4.28;;;1.63;;
21804;SDS011;11064;47.102;15.452;2023-09-19T09:25:54;5.18;;;1.90;;
21804;SDS011;11064;47.102;15.452;2023-09-19T09:28:25;4.75;;;1.98;;
21804;SDS011;11064;47.102;15.452;2023-09-19T09:30:53;4.22;;;1.83;;
21804;SDS011;11064;47.102;15.452;2023-09-19T09:33:20;4.53;;;1.98;;
21804;SDS011;11064;47.102;15.452;2023-09-19T09:38:29;6.38;;;2.20;;
21804;SDS011;11064;47.102;15.452;2023-09-19T09:41:08;4.35;;;2.10;;
21804;SDS011;11064;47.102;15.452;2023-09-19T09:43:41;4.93;;;1.95;;
21804;SDS011;11064;47.102;15.452;2023-09-19T09:51:39;5.28;;;1.52;;
21804;SDS011;11064;47.102;15.452;2023-09-19T09:54:16;4.43;;;1.98;;
21804;SDS011;11064;47.102;15.452;2023-09-19T09:56:56;2.70;;;1.60;;
21804;SDS011;11064;47.102;15.452;2023-09-19T10:02:21;3.45;;;1.60;;
21804;SDS011;11064;47.102;15.452;2023-09-19T10:04:54;6.90;;;2.00;;
21804;SDS011;11064;47.102;15.452;2023-09-19T10:09:53;4.00;;;1.70;;
21804;SDS011;11064;47.102;15.452;2023-09-19T10:12:25;5.95;;;2.10;;
21804;SDS011;11064;47.102;15.452;2023-09-19T10:14:54;3.58;;;1.90;;
21804;SDS011;11064;47.102;15.452;2023-09-19T10:17:25;4.15;;;1.80;;
21804;SDS011;11064;47.102;15.452;2023-09-19T10:19:55;5.43;;;1.60;;
21804;SDS011;11064;47.102;15.452;2023-09-19T10:22:26;3.60;;;2.08;;
21804;SDS011;11064;47.102;15.452;2023-09-19T10:24:56;3.13;;;1.88;;
21804;SDS011;11064;47.102;15.452;2023-09-19T10:27:25;3.97;;;2.08;;
21804;SDS011;11064;47.102;15.452;2023-09-19T10:29:52;3.38;;;1.80;;
21804;SDS011;11064;47.102;15.452;2023-09-19T10:34:48;5.65;;;2.00;;
21804;SDS011;11064;47.102;15.452;2023-09-19T10:37:18;3.38;;;1.90;;
21804;SDS011;11064;47.102;15.452;2023-09-19T10:39:47;3.08;;;1.85;;
21804;SDS011;11064;47.102;15.452;2023-09-19T10:42:16;5.10;;;1.77;;
21804;SDS011;11064;47.102;15.452;2023-09-19T10:44:45;3.53;;;1.90;;
21804;SDS011;11064;47.102;15.452;2023-09-19T10:47:19;4.55;;;1.77;;
21804;SDS011;11064;47.102;15.452;2023-09-19T10:49:46;5.35;;;1.73;;
21804;SDS011;11064;47.102;15.452;2023-09-19T10:52:13;4.10;;;1.73;;
21804;SDS011;11064;47.102;15.452;2023-09-19T10:54:51;2.95;;;1.55;;
21804;SDS011;11064;47.102;15.452;2023-09-19T10:57:21;2.50;;;1.73;;
21804;SDS011;11064;47.102;15.452;2023-09-19T11:00:05;2.22;;;1.60;;
21804;SDS011;11064;47.102;15.452;2023-09-19T11:06:03;6.72;;;1.50;;
21804;SDS011;11064;47.102;15.452;2023-09-19T11:11:40;3.83;;;1.60;;
21804;SDS011;11064;47.102;15.452;2023-09-19T11:14:29;3.20;;;1.40;;
21804;SDS011;11064;47.102;15.452;2023-09-19T11:30:42;3.13;;;1.40;;
21804;SDS011;11064;47.102;15.452;2023-09-19T11:33:30;2.60;;;1.40;;
21804;SDS011;11064;47.102;15.452;2023-09-19T11:43:47;2.92;;;1.50;;
21804;SDS011;11064;47.102;15.452;2023-09-19T11:46:16;2.10;;;1.27;;
21804;SDS011;11064;47.102;15.452;2023-09-19T11:48:50;3.45;;;1.30;;
21804;SDS011;11064;47.102;15.452;2023-09-19T11:53:52;2.58;;;1.20;;
21804;SDS011;11064;47.102;15.452;2023-09-19T11:56:20;2.90;;;1.27;;
21804;SDS011;11064;47.102;15.452;2023-09-19T11:58:50;3.70;;;1.47;;
21804;SDS011;11064;47.102;15.452;2023-09-19T12:03:55;2.92;;;1.40;;
21804;SDS011;11064;47.102;15.452;2023-09-19T12:06:23;2.45;;;1.35;;
21804;SDS011;11064;47.102;15.452;2023-09-19T12:08:51;2.63;;;1.35;;
21804;SDS011;11064;47.102;15.452;2023-09-19T12:11:19;2.22;;;1.00;;
21804;SDS011;11064;47.102;15.452;2023-09-19T12:13:48;2.10;;;1.13;;
21804;SDS011;11064;47.102;15.452;2023-09-19T12:16:19;3.92;;;1.20;;
21804;SDS011;11064;47.102;15.452;2023-09-19T12:18:49;2.45;;;1.13;;
21804;SDS011;11064;47.102;15.452;2023-09-19T12:21:29;1.95;;;1.10;;
21804;SDS011;11064;47.102;15.452;2023-09-19T12:24:05;2.17;;;1.25;;
21804;SDS011;11064;47.102;15.452;2023-09-19T12:26:45;2.95;;;1.23;;
21804;SDS011;11064;47.102;15.452;2023-09-19T12:29:21;4.43;;;1.33;;
21804;SDS011;11064;47.102;15.452;2023-09-19T12:31:51;3.50;;;1.30;;
21804;SDS011;11064;47.102;15.452;2023-09-19T12:34:24;4.57;;;1.30;;
21804;SDS011;11064;47.102;15.452;2023-09-19T12:39:43;3.67;;;1.40;;
21804;SDS011;11064;47.102;15.452;2023-09-19T12:42:22;3.50;;;1.00;;
21804;SDS011;11064;47.102;15.452;2023-09-19T12:44:52;2.50;;;1.10;;
21804;SDS011;11064;47.102;15.452;2023-09-19T12:47:22;2.55;;;1.20;;
21804;SDS011;11064;47.102;15.452;2023-09-19T12:50:05;2.00;;;1.25;;
21804;SDS011;11064;47.102;15.452;2023-09-19T12:52:48;3.05;;;1.20;;
21804;SDS011;11064;47.102;15.452;2023-09-19T12:57:55;3.05;;;1.20;;
21804;SDS011;11064;47.102;15.452;2023-09-19T13:00:37;2.20;;;1.50;;
21804;SDS011;11064;47.102;15.452;2023-09-19T13:06:05;4.73;;;1.33;;
21804;SDS011;11064;47.102;15.452;2023-09-19T13:08:33;3.05;;;1.20;;
21804;SDS011;11064;47.102;15.452;2023-09-19T13:13:33;1.80;;;1.17;;
21804;SDS011;11064;47.102;15.452;2023-09-19T13:16:01;1.98;;;1.10;;
21804;SDS011;11064;47.102;15.452;2023-09-19T13:18:28;2.55;;;1.38;;
21804;SDS011;11064;47.102;15.452;2023-09-19T13:21:10;1.95;;;1.15;;
21804;SDS011;11064;47.102;15.452;2023-09-19T13:23:50;2.40;;;1.50;;
21804;SDS011;11064;47.102;15.452;2023-09-19T13:26:24;2.97;;;1.20;;
21804;SDS011;11064;47.102;15.452;2023-09-19T13:28:56;1.67;;;1.10;;
21804;SDS011;11064;47.102;15.452;2023-09-19T13:31:22;3.38;;;1.40;;
21804;SDS011;11064;47.102;15.452;2023-09-19T13:33:49;4.05;;;1.40;;
21804;SDS011;11064;47.102;15.452;2023-09-19T13:36:15;2.75;;;1.30;;
21804;SDS011;11064;47.102;15.452;2023-09-19T13:38:43;3.28;;;1.25;;
21804;SDS011;11064;47.102;15.452;2023-09-19T13:41:12;2.33;;;1.40;;
21804;SDS011;11064;47.102;15.452;2023-09-19T13:43:39;3.67;;;1.30;;
21804;SDS011;11064;47.102;15.452;2023-09-19T13:46:05;2.58;;;1.20;;
21804;SDS011;11064;47.102;15.452;2023-09-19T13:48:40;5.72;;;1.35;;
21804;SDS011;11064;47.102;15.452;2023-09-19T13:51:06;3.33;;;1.30;;
21804;SDS011;11064;47.102;15.452;2023-09-19T13:53:31;1.83;;;1.30;;
21804;SDS011;11064;47.102;15.452;2023-09-19T13:55:57;2.63;;;1.15;;
21804;SDS011;11064;47.102;15.452;2023-09-19T13:58:23;2.38;;;1.15;;
21804;SDS011;11064;47.102;15.452;2023-09-19T14:00:49;6.47;;;1.15;;
21804;SDS011;11064;47.102;15.452;2023-09-19T14:03:16;2.95;;;1.25;;
21804;SDS011;11064;47.102;15.452;2023-09-19T14:05:41;3.40;;;1.30;;
21804;SDS011;11064;47.102;15.452;2023-09-19T14:08:07;2.35;;;1.50;;
21804;SDS011;11064;47.102;15.452;2023-09-19T14:10:33;3.42;;;1.42;;
21804;SDS011;11064;47.102;15.452;2023-09-19T14:13:00;3.80;;;1.17;;
21804;SDS011;11064;47.102;15.452;2023-09-19T14:15:26;3.78;;;1.23;;
21804;SDS011;11064;47.102;15.452;2023-09-19T14:17:58;4.70;;;1.20;;
21804;SDS011;11064;47.102;15.452;2023-09-19T14:20:25;3.28;;;1.60;;
21804;SDS011;11064;47.102;15.452;2023-09-19T14:22:53;6.03;;;1.48;;
21804;SDS011;11064;47.102;15.452;2023-09-19T14:25:19;6.25;;;1.60;;
21804;SDS011;11064;47.102;15.452;2023-09-19T14:27:46;7.38;;;1.80;;
21804;SDS011;11064;47.102;15.452;2023-09-19T14:30:13;6.53;;;1.92;;
21804;SDS011;11064;47.102;15.452;2023-09-19T14:32:39;5.35;;;1.95;;
21804;SDS011;11064;47.102;15.452;2023-09-19T14:35:06;4.85;;;1.77;;
21804;SDS011;11064;47.102;15.452;2023-09-19T14:37:34;6.30;;;1.95;;
21804;SDS011;11064;47.102;15.452;2023-09-19T14:40:00;5.45;;;1.83;;
21804;SDS011;11064;47.102;15.452;2023-09-19T14:42:32;4.60;;;2.00;;
21804;SDS011;11064;47.102;15.452;2023-09-19T14:44:57;2.85;;;1.65;;
21804;SDS011;11064;47.102;15.452;2023-09-19T14:47:23;4.05;;;1.60;;
21804;SDS011;11064;47.102;15.452;2023-09-19T14:49:50;4.97;;;1.73;;
21804;SDS011;11064;47.102;15.452;2023-09-19T14:52:16;3.47;;;1.60;;
21804;SDS011;11064;47.102;15.452;2023-09-19T14:54:42;2.58;;;1.80;;
21804;SDS011;11064;47.102;15.452;2023-09-19T14:57:07;3.47;;;1.75;;
21804;SDS011;11064;47.102;15.452;2023-09-19T14:59:37;4.63;;;1.90;;
21804;SDS011;11064;47.102;15.452;2023-09-19T15:02:06;3.15;;;1.80;;
21804;SDS011;11064;47.102;15.452;2023-09-19T15:04:32;2.00;;;1.50;;
21804;SDS011;11064;47.102;15.452;2023-09-19T15:07:02;5.73;;;2.00;;
21804;SDS011;11064;47.102;15.452;2023-09-19T15:09:28;2.97;;;1.50;;
21804;SDS011;11064;47.102;15.452;2023-09-19T15:11:57;3.10;;;1.63;;
21804;SDS011;11064;47.102;15.452;2023-09-19T15:14:23;2.45;;;1.70;;
21804;SDS011;11064;47.102;15.452;2023-09-19T15:16:54;5.68;;;2.03;;
21804;SDS011;11064;47.102;15.452;2023-09-19T15:19:20;4.10;;;1.60;;
21804;SDS011;11064;47.102;15.452;2023-09-19T15:21:48;5.45;;;1.70;;
21804;SDS011;11064;47.102;15.452;2023-09-19T15:24:14;2.03;;;1.75;;
21804;SDS011;11064;47.102;15.452;2023-09-19T15:26:42;4.25;;;1.65;;
21804;SDS011;11064;47.102;15.452;2023-09-19T15:29:10;2.75;;;1.60;;
21804;SDS011;11064;47.102;15.452;2023-09-19T15:31:36;4.55;;;1.60;;
21804;SDS011;11064;47.102;15.452;2023-09-19T15:34:03;2.67;;;1.60;;
21804;SDS011;11064;47.102;15.452;2023-09-19T15:36:30;4.15;;;1.77;;
21804;SDS011;11064;47.102;15.452;2023-09-19T15:38:58;4.43;;;1.70;;
21804;SDS011;11064;47.102;15.452;2023-09-19T15:41:33;3.10;;;1.80;;
21804;SDS011;11064;47.102;15.452;2023-09-19T15:44:02;3.45;;;1.90;;
21804;SDS011;11064;47.102;15.452;2023-09-19T15:46:31;4.03;;;1.73;;
21804;SDS011;11064;47.102;15.452;2023-09-19T15:49:01;2.53;;;1.40;;
21804;SDS011;11064;47.102;15.452;2023-09-19T15:51:28;3.35;;;1.63;;
21804;SDS011;11064;47.102;15.452;2023-09-19T15:53:54;2.70;;;1.55;;
21804;SDS011;11064;47.102;15.452;2023-09-19T15:56:22;2.60;;;1.33;;
21804;SDS011;11064;47.102;15.452;2023-09-19T15:58:53;2.25;;;1.70;;
21804;SDS011;11064;47.102;15.452;2023-09-19T16:01:20;2.92;;;1.88;;
21804;SDS011;11064;47.102;15.452;2023-09-19T16:03:51;4.00;;;1.70;;
21804;SDS011;11064;47.102;15.452;2023-09-19T16:06:21;2.55;;;1.58;;
21804;SDS011;11064;47.102;15.452;2023-09-19T16:08:49;4.43;;;1.48;;
21804;SDS011;11064;47.102;15.452;2023-09-19T16:11:17;3.38;;;1.95;;
21804;SDS011;11064;47.102;15.452;2023-09-19T16:13:45;4.18;;;1.80;;
21804;SDS011;11064;47.102;15.452;2023-09-19T16:16:13;2.47;;;1.70;;
21804;SDS011;11064;47.102;15.452;2023-09-19T16:18:57;3.47;;;1.65;;
21804;SDS011;11064;47.102;15.452;2023-09-19T16:21:31;2.92;;;1.70;;
21804;SDS011;11064;47.102;15.452;2023-09-19T16:24:00;3.10;;;1.80;;
21804;SDS011;11064;47.102;15.452;2023-09-19T16:26:26;5.72;;;1.70;;
21804;SDS011;11064;47.102;15.452;2023-09-19T16:28:57;2.83;;;1.75;;
21804;SDS011;11064;47.102;15.452;2023-09-19T16:31:28;2.35;;;1.60;;
21804;SDS011;11064;47.102;15.452;2023-09-19T16:33:56;5.78;;;2.03;;
21804;SDS011;11064;47.102;15.452;2023-09-19T16:36:24;4.90;;;1.88;;
21804;SDS011;11064;47.102;15.452;2023-09-19T16:38:51;4.22;;;1.90;;
21804;SDS011;11064;47.102;15.452;2023-09-19T16:41:17;4.35;;;2.10;;
21804;SDS011;11064;47.102;15.452;2023-09-19T16:43:45;3.45;;;1.98;;
21804;SDS011;11064;47.102;15.452;2023-09-19T16:46:12;2.78;;;1.85;;
21804;SDS011;11064;47.102;15.452;2023-09-19T16:48:42;4.78;;;2.00;;
21804;SDS011;11064;47.102;15.452;2023-09-19T16:51:11;4.30;;;2.13;;
21804;SDS011;11064;47.102;15.452;2023-09-19T16:53:39;4.80;;;1.65;;
21804;SDS011;11064;47.102;15.452;2023-09-19T16:56:11;3.85;;;2.08;;
21804;SDS011;11064;47.102;15.452;2023-09-19T16:58:41;4.40;;;2.10;;
21804;SDS011;11064;47.102;15.452;2023-09-19T17:01:08;3.42;;;1.95;;
21804;SDS011;11064;47.102;15.452;2023-09-19T17:03:39;2.58;;;1.90;;
21804;SDS011;11064;47.102;15.452;2023-09-19T17:06:12;3.70;;;2.13;;
21804;SDS011;11064;47.102;15.452;2023-09-19T17:08:43;3.65;;;1.77;;
21804;SDS011;11064;47.102;15.452;2023-09-19T17:11:10;4.07;;;1.92;;
21804;SDS011;11064;47.102;15.452;2023-09-19T17:13:39;4.43;;;1.85;;
21804;SDS011;11064;47.102;15.452;2023-09-19T17:16:12;4.47;;;2.08;;
21804;SDS011;11064;47.102;15.452;2023-09-19T17:18:49;3.47;;;2.10;;
21804;SDS011;11064;47.102;15.452;2023-09-19T17:23:43;3.20;;;2.22;;
21804;SDS011;11064;47.102;15.452;2023-09-19T17:26:10;6.45;;;2.10;;
21804;SDS011;11064;47.102;15.452;2023-09-19T17:28:39;4.25;;;2.00;;
21804;SDS011;11064;47.102;15.452;2023-09-19T17:31:11;3.28;;;2.15;;
21804;SDS011;11064;47.102;15.452;2023-09-19T17:33:40;3.97;;;2.13;;
21804;SDS011;11064;47.102;15.452;2023-09-19T17:36:09;3.90;;;2.03;;
21804;SDS011;11064;47.102;15.452;2023-09-19T17:38:40;4.75;;;1.80;;
21804;SDS011;11064;47.102;15.452;2023-09-19T17:41:11;5.22;;;2.10;;
21804;SDS011;11064;47.102;15.452;2023-09-19T17:43:41;4.03;;;1.90;;
21804;SDS011;11064;47.102;15.452;2023-09-19T17:48:40;3.05;;;2.05;;
21804;SDS011;11064;47.102;15.452;2023-09-19T17:51:10;3.35;;;2.00;;
21804;SDS011;11064;47.102;15.452;2023-09-19T17:53:39;5.03;;;2.15;;
21804;SDS011;11064;47.102;15.452;2023-09-19T17:56:07;4.65;;;2.30;;
21804;SDS011;11064;47.102;15.452;2023-09-19T17:58:35;3.38;;;2.17;;
21804;SDS011;11064;47.102;15.452;2023-09-19T18:01:15;5.13;;;2.10;;
21804;SDS011;11064;47.102;15.452;2023-09-19T18:03:45;2.65;;;2.10;;
21804;SDS011;11064;47.102;15.452;2023-09-19T18:06:12;3.42;;;2.08;;
21804;SDS011;11064;47.102;15.452;2023-09-19T18:08:41;2.60;;;1.95;;
21804;SDS011;11064;47.102;15.452;2023-09-19T18:11:12;3.15;;;1.95;;
21804;SDS011;11064;47.102;15.452;2023-09-19T18:13:44;4.28;;;2.10;;
21804;SDS011;11064;47.102;15.452;2023-09-19T18:16:13;3.30;;;2.10;;
21804;SDS011;11064;47.102;15.452;2023-09-19T18:18:42;3.58;;;1.92;;
21804;SDS011;11064;47.102;15.452;2023-09-19T18:21:15;3.85;;;2.17;;
21804;SDS011;11064;47.102;15.452;2023-09-19T18:23:54;2.97;;;2.08;;
21804;SDS011;11064;47.102;15.452;2023-09-19T18:26:29;2.95;;;2.10;;
21804;SDS011;11064;47.102;15.452;2023-09-19T18:28:55;3.42;;;2.10;;
21804;SDS011;11064;47.102;15.452;2023-09-19T18:31:23;4.25;;;2.00;;
21804;SDS011;11064;47.102;15.452;2023-09-19T18:33:49;2.95;;;1.90;;
21804;SDS011;11064;47.102;15.452;2023-09-19T18:36:18;3.60;;;2.22;;
21804;SDS011;11064;47.102;15.452;2023-09-19T18:38:46;4.20;;;2.00;;
21804;SDS011;11064;47.102;15.452;2023-09-19T18:41:13;5.70;;;2.40;;
21804;SDS011;11064;47.102;15.452;2023-09-19T18:43:40;4.90;;;2.25;;
21804;SDS011;11064;47.102;15.452;2023-09-19T18:46:08;3.95;;;2.30;;
21804;SDS011;11064;47.102;15.452;2023-09-19T18:48:35;3.92;;;2.10;;
21804;SDS011;11064;47.102;15.452;2023-09-19T18:51:04;4.38;;;2.30;;
21804;SDS011;11064;47.102;15.452;2023-09-19T18:53:32;4.20;;;2.13;;
21804;SDS011;11064;47.102;15.452;2023-09-19T18:56:05;3.88;;;2.13;;
21804;SDS011;11064;47.102;15.452;2023-09-19T18:58:34;4.20;;;2.10;;
21804;SDS011;11064;47.102;15.452;2023-09-19T19:01:03;3.83;;;2.17;;
21804;SDS011;11064;47.102;15.452;2023-09-19T19:03:32;4.47;;;2.17;;
21804;SDS011;11064;47.102;15.452;2023-09-19T19:06:05;3.58;;;2.22;;
21804;SDS011;11064;47.102;15.452;2023-09-19T19:08:38;4.60;;;2.22;;
21804;SDS011;11064;47.102;15.452;2023-09-19T19:11:09;3.33;;;2.03;;
21804;SDS011;11064;47.102;15.452;2023-09-19T19:13:37;2.60;;;2.15;;
21804;SDS011;11064;47.102;15.452;2023-09-19T19:16:05;4.95;;;2.15;;
21804;SDS011;11064;47.102;15.452;2023-09-19T19:18:36;5.50;;;2.40;;
21804;SDS011;11064;47.102;15.452;2023-09-19T19:21:04;3.55;;;2.15;;
21804;SDS011;11064;47.102;15.452;2023-09-19T19:23:32;5.18;;;2.08;;
21804;SDS011;11064;47.102;15.452;2023-09-19T19:26:04;3.58;;;2.47;;
21804;SDS011;11064;47.102;15.452;2023-09-19T19:28:34;3.40;;;2.00;;
21804;SDS011;11064;47.102;15.452;2023-09-19T19:31:01;4.45;;;2.40;;
21804;SDS011;11064;47.102;15.452;2023-09-19T19:33:34;5.95;;;2.60;;
21804;SDS011;11064;47.102;15.452;2023-09-19T19:36:04;4.07;;;2.53;;
21804;SDS011;11064;47.102;15.452;2023-09-19T19:38:35;5.95;;;2.20;;
21804;SDS011;11064;47.102;15.452;2023-09-19T19:41:02;3.60;;;2.47;;
21804;SDS011;11064;47.102;15.452;2023-09-19T19:43:32;3.45;;;2.28;;
21804;SDS011;11064;47.102;15.452;2023-09-19T19:46:02;6.25;;;2.90;;
21804;SDS011;11064;47.102;15.452;2023-09-19T19:48:30;3.28;;;2.53;;
21804;SDS011;11064;47.102;15.452;2023-09-19T19:50:56;6.60;;;2.30;;
21804;SDS011;11064;47.102;15.452;2023-09-19T19:53:24;4.03;;;2.60;;
21804;SDS011;11064;47.102;15.452;2023-09-19T19:55:52;4.22;;;2.30;;
21804;SDS011;11064;47.102;15.452;2023-09-19T19:58:19;2.95;;;2.28;;